sensor_id;sensor_type;location;lat;lon;timestamp;temperature;humidity
3154;DHT22;1587;48.630;9.046;2024-01-06T00:01:17;3.20;99.90
3154;DHT22;1587;48.630;9.046;2024-01-06T00:03:42;3.20;99.90
3154;DHT22;1587;48.630;9.046;2024-01-06T00:06:11;3.20;99.90
3154;DHT22;1587;48.630;9.046;2024-01-06T00:08:36;3.20;99.90
3154;DHT22;1587;48.630;9.046;2024-01-06T00:11:01;3.10;99.90
3154;DHT22;1587;48.630;9.046;2024-01-06T00:13:28;3.00;99.90
3154;DHT22;1587;48.630;9.046;2024-01-06T01:19:09;3.20;99.90
3154;DHT22;1587;48.630;9.046;2024-01-06T01:21:35;3.20;99.90
3154;DHT22;1587;48.630;9.046;2024-01-06T01:24:00;3.20;99.90
3154;DHT22;1587;48.630;9.046;2024-01-06T01:26:26;3.00;99.90
3154;DHT22;1587;48.630;9.046;2024-01-06T01:28:51;3.00;99.90
3154;DHT22;1587;48.630;9.046;2024-01-06T01:31:17;2.90;99.90
3154;DHT22;1587;48.630;9.046;2024-01-06T01:33:42;2.80;99.90
3154;DHT22;1587;48.630;9.046;2024-01-06T01:36:08;2.80;99.90
3154;DHT22;1587;48.630;9.046;2024-01-06T01:38:33;2.70;99.90
3154;DHT22;1587;48.630;9.046;2024-01-06T01:40:58;2.70;99.90
3154;DHT22;1587;48.630;9.046;2024-01-06T01:43:24;2.70;99.90
3154;DHT22;1587;48.630;9.046;2024-01-06T01:45:50;2.70;99.90
3154;DHT22;1587;48.630;9.046;2024-01-06T01:48:18;2.70;99.90
3154;DHT22;1587;48.630;9.046;2024-01-06T01:50:44;2.70;99.90
3154;DHT22;1587;48.630;9.046;2024-01-06T01:53:10;2.60;99.90
3154;DHT22;1587;48.630;9.046;2024-01-06T19:32:38;3.70;99.90
3154;DHT22;1587;48.630;9.046;2024-01-06T19:35:03;3.70;99.90
3154;DHT22;1587;48.630;9.046;2024-01-06T19:37:29;3.60;99.90
3154;DHT22;1587;48.630;9.046;2024-01-06T19:39:54;3.60;99.90
3154;DHT22;1587;48.630;9.046;2024-01-06T19:42:20;3.50;99.90
3154;DHT22;1587;48.630;9.046;2024-01-06T19:44:45;3.50;99.90
3154;DHT22;1587;48.630;9.046;2024-01-06T19:47:12;3.50;99.90
3154;DHT22;1587;48.630;9.046;2024-01-06T19:49:38;3.50;99.90
3154;DHT22;1587;48.630;9.046;2024-01-06T19:52:03;3.70;99.90
3154;DHT22;1587;48.630;9.046;2024-01-06T19:54:29;3.50;99.90
3154;DHT22;1587;48.630;9.046;2024-01-06T19:56:57;3.50;99.90
3154;DHT22;1587;48.630;9.046;2024-01-06T19:59:23;3.40;99.90
3154;DHT22;1587;48.630;9.046;2024-01-06T20:01:48;3.40;99.90
3154;DHT22;1587;48.630;9.046;2024-01-06T20:04:14;3.50;99.90
3154;DHT22;1587;48.630;9.046;2024-01-06T20:06:39;3.40;99.90
3154;DHT22;1587;48.630;9.046;2024-01-06T20:09:05;3.40;99.90
3154;DHT22;1587;48.630;9.046;2024-01-06T20:11:32;3.40;99.90
3154;DHT22;1587;48.630;9.046;2024-01-06T20:13:57;3.50;99.90
3154;DHT22;1587;48.630;9.046;2024-01-06T20:16:23;3.20;99.90
3154;DHT22;1587;48.630;9.046;2024-01-06T20:18:48;3.40;99.90
3154;DHT22;1587;48.630;9.046;2024-01-06T20:21:14;3.40;99.90
3154;DHT22;1587;48.630;9.046;2024-01-06T20:23:40;3.40;99.90
3154;DHT22;1587;48.630;9.046;2024-01-06T20:26:06;3.30;99.90
3154;DHT22;1587;48.630;9.046;2024-01-06T20:28:32;3.30;99.90
